sensor_id;sensor_type;location;lat;lon;timestamp;P1;durP1;ratioP1;P2;durP2;ratioP2
66979;SDS011;54048;51.468;-2.572;2022-09-09T00:03:40;12.63;;;6.13;;
66979;SDS011;54048;51.468;-2.572;2022-09-09T00:06:33;9.63;;;6.90;;
66979;SDS011;54048;51.468;-2.572;2022-09-09T00:09:17;11.48;;;7.55;;
66979;SDS011;54048;51.468;-2.572;2022-09-09T00:22:47;10.35;;;7.40;;
66979;SDS011;54048;51.468;-2.572;2022-09-09T00:25:21;12.85;;;6.90;;
66979;SDS011;54048;51.468;-2.572;2022-09-09T00:27:49;13.55;;;6.57;;
66979;SDS011;54048;51.468;-2.572;2022-09-09T00:32:47;12.48;;;6.15;;
66979;SDS011;54048;51.468;-2.572;2022-09-09T00:35:18;13.63;;;5.72;;
66979;SDS011;54048;51.468;-2.572;2022-09-09T00:37:48;8.43;;;4.80;;
66979;SDS011;54048;51.468;-2.572;2022-09-09T00:40:23;8.73;;;4.20;;
66979;SDS011;54048;51.468;-2.572;2022-09-09T00:43:18;6.82;;;4.03;;
66979;SDS011;54048;51.468;-2.572;2022-09-09T00:48:45;9.70;;;3.95;;
66979;SDS011;54048;51.468;-2.572;2022-09-09T00:51:22;6.60;;;3.05;;
66979;SDS011;54048;51.468;-2.572;2022-09-09T00:56:49;5.07;;;2.92;;
66979;SDS011;54048;51.468;-2.572;2022-09-09T00:59:46;8.50;;;2.95;;
66979;SDS011;54048;51.468;-2.572;2022-09-09T01:02:35;3.75;;;3.17;;
66979;SDS011;54048;51.468;-2.572;2022-09-09T01:05:18;7.80;;;3.13;;
66979;SDS011;54048;51.468;-2.572;2022-09-09T01:07:47;6.90;;;3.30;;
66979;SDS011;54048;51.468;-2.572;2022-09-09T01:10:17;8.00;;;2.70;;
66979;SDS011;54048;51.468;-2.572;2022-09-09T01:12:50;4.82;;;2.72;;
66979;SDS011;54048;51.468;-2.572;2022-09-09T01:15:21;3.50;;;2.67;;
66979;SDS011;54048;51.468;-2.572;2022-09-09T01:20:31;6.47;;;2.60;;
66979;SDS011;54048;51.468;-2.572;2022-09-09T01:26:04;5.00;;;2.80;;
66979;SDS011;54048;51.468;-2.572;2022-09-09T01:28:48;5.68;;;2.65;;
66979;SDS011;54048;51.468;-2.572;2022-09-09T01:31:19;6.85;;;2.60;;
66979;SDS011;54048;51.468;-2.572;2022-09-09T01:33:48;7.53;;;2.95;;
66979;SDS011;54048;51.468;-2.572;2022-09-09T01:36:48;5.28;;;2.28;;
66979;SDS011;54048;51.468;-2.572;2022-09-09T01:39:21;7.05;;;2.88;;
66979;SDS011;54048;51.468;-2.572;2022-09-09T01:41:46;5.93;;;2.80;;
66979;SDS011;54048;51.468;-2.572;2022-09-09T01:44:12;5.32;;;2.38;;
66979;SDS011;54048;51.468;-2.572;2022-09-09T01:46:37;8.48;;;2.50;;
66979;SDS011;54048;51.468;-2.572;2022-09-09T01:49:04;7.88;;;2.45;;
66979;SDS011;54048;51.468;-2.572;2022-09-09T01:51:31;4.22;;;2.65;;
66979;SDS011;54048;51.468;-2.572;2022-09-09T01:53:56;3.83;;;2.30;;
66979;SDS011;54048;51.468;-2.572;2022-09-09T01:59:09;7.05;;;2.65;;
66979;SDS011;54048;51.468;-2.572;2022-09-09T02:02:10;3.88;;;2.35;;
66979;SDS011;54048;51.468;-2.572;2022-09-09T02:04:56;7.38;;;2.53;;
66979;SDS011;54048;51.468;-2.572;2022-09-09T02:07:40;4.10;;;2.53;;
66979;SDS011;54048;51.468;-2.572;2022-09-09T02:10:17;6.72;;;2.50;;
66979;SDS011;54048;51.468;-2.572;2022-09-09T02:12:48;3.72;;;2.40;;
66979;SDS011;54048;51.468;-2.572;2022-09-09T02:16:03;5.78;;;2.75;;
66979;SDS011;54048;51.468;-2.572;2022-09-09T02:18:04;5.82;;;2.30;;
66979;SDS011;54048;51.468;-2.572;2022-09-09T02:20:33;4.38;;;2.83;;
66979;SDS011;54048;51.468;-2.572;2022-09-09T02:23:00;8.65;;;2.58;;
66979;SDS011;54048;51.468;-2.572;2022-09-09T02:25:26;8.52;;;2.42;;
66979;SDS011;54048;51.468;-2.572;2022-09-09T02:27:54;8.27;;;2.83;;
66979;SDS011;54048;51.468;-2.572;2022-09-09T02:30:20;7.70;;;2.58;;
66979;SDS011;54048;51.468;-2.572;2022-09-09T02:32:45;2.55;;;2.33;;
66979;SDS011;54048;51.468;-2.572;2022-09-09T02:35:15;3.88;;;2.28;;
66979;SDS011;54048;51.468;-2.572;2022-09-09T02:37:44;6.05;;;2.35;;
66979;SDS011;54048;51.468;-2.572;2022-09-09T02:40:13;4.35;;;2.50;;
66979;SDS011;54048;51.468;-2.572;2022-09-09T02:42:43;8.80;;;2.47;;
66979;SDS011;54048;51.468;-2.572;2022-09-09T02:45:11;7.85;;;2.45;;
66979;SDS011;54048;51.468;-2.572;2022-09-09T02:47:46;7.88;;;2.40;;
66979;SDS011;54048;51.468;-2.572;2022-09-09T02:50:17;6.30;;;2.10;;
66979;SDS011;54048;51.468;-2.572;2022-09-09T02:58:08;10.20;;;2.30;;
66979;SDS011;54048;51.468;-2.572;2022-09-09T03:00:36;8.32;;;2.15;;
66979;SDS011;54048;51.468;-2.572;2022-09-09T03:03:03;4.85;;;1.90;;
66979;SDS011;54048;51.468;-2.572;2022-09-09T03:05:29;6.70;;;2.25;;
66979;SDS011;54048;51.468;-2.572;2022-09-09T03:07:54;4.45;;;1.92;;
66979;SDS011;54048;51.468;-2.572;2022-09-09T03:10:20;6.50;;;1.98;;
66979;SDS011;54048;51.468;-2.572;2022-09-09T03:12:45;7.70;;;1.90;;
66979;SDS011;54048;51.468;-2.572;2022-09-09T03:15:10;4.45;;;1.73;;
66979;SDS011;54048;51.468;-2.572;2022-09-09T03:17:36;2.03;;;1.55;;
66979;SDS011;54048;51.468;-2.572;2022-09-09T03:20:04;4.95;;;2.00;;
66979;SDS011;54048;51.468;-2.572;2022-09-09T03:22:30;5.68;;;1.90;;
66979;SDS011;54048;51.468;-2.572;2022-09-09T03:24:56;4.03;;;1.85;;
66979;SDS011;54048;51.468;-2.572;2022-09-09T03:27:21;4.47;;;1.65;;
66979;SDS011;54048;51.468;-2.572;2022-09-09T03:29:46;6.53;;;1.77;;
66979;SDS011;54048;51.468;-2.572;2022-09-09T03:32:15;5.30;;;1.75;;
66979;SDS011;54048;51.468;-2.572;2022-09-09T03:34:42;3.72;;;1.60;;
66979;SDS011;54048;51.468;-2.572;2022-09-09T03:37:07;2.30;;;1.52;;
66979;SDS011;54048;51.468;-2.572;2022-09-09T03:39:32;4.65;;;1.92;;
66979;SDS011;54048;51.468;-2.572;2022-09-09T03:41:58;3.97;;;1.60;;
66979;SDS011;54048;51.468;-2.572;2022-09-09T03:44:23;5.65;;;2.05;;
66979;SDS011;54048;51.468;-2.572;2022-09-09T03:46:48;7.35;;;1.90;;
66979;SDS011;54048;51.468;-2.572;2022-09-09T03:49:14;6.30;;;1.80;;
66979;SDS011;54048;51.468;-2.572;2022-09-09T03:51:40;6.00;;;1.92;;
66979;SDS011;54048;51.468;-2.572;2022-09-09T03:54:06;6.35;;;2.20;;
66979;SDS011;54048;51.468;-2.572;2022-09-09T03:56:33;3.97;;;2.25;;
66979;SDS011;54048;51.468;-2.572;2022-09-09T03:58:59;4.22;;;2.03;;
66979;SDS011;54048;51.468;-2.572;2022-09-09T04:01:24;7.90;;;2.15;;
66979;SDS011;54048;51.468;-2.572;2022-09-09T04:03:50;4.05;;;2.15;;
66979;SDS011;54048;51.468;-2.572;2022-09-09T04:06:17;2.90;;;2.08;;
66979;SDS011;54048;51.468;-2.572;2022-09-09T04:08:42;4.38;;;2.33;;
66979;SDS011;54048;51.468;-2.572;2022-09-09T04:11:08;8.38;;;2.30;;
66979;SDS011;54048;51.468;-2.572;2022-09-09T04:13:35;8.40;;;2.00;;
66979;SDS011;54048;51.468;-2.572;2022-09-09T04:16:03;4.13;;;1.77;;
66979;SDS011;54048;51.468;-2.572;2022-09-09T04:18:28;3.38;;;2.00;;
66979;SDS011;54048;51.468;-2.572;2022-09-09T04:20:54;5.68;;;2.08;;
66979;SDS011;54048;51.468;-2.572;2022-09-09T04:23:22;2.65;;;1.70;;
66979;SDS011;54048;51.468;-2.572;2022-09-09T04:25:52;3.25;;;1.95;;
66979;SDS011;54048;51.468;-2.572;2022-09-09T04:28:19;5.03;;;1.90;;
66979;SDS011;54048;51.468;-2.572;2022-09-09T04:30:46;4.30;;;1.83;;
66979;SDS011;54048;51.468;-2.572;2022-09-09T04:33:12;2.75;;;1.80;;
66979;SDS011;54048;51.468;-2.572;2022-09-09T04:35:38;3.92;;;2.17;;
66979;SDS011;54048;51.468;-2.572;2022-09-09T04:38:04;7.53;;;1.80;;
66979;SDS011;54048;51.468;-2.572;2022-09-09T04:40:32;4.97;;;1.83;;
66979;SDS011;54048;51.468;-2.572;2022-09-09T04:42:58;2.70;;;1.73;;
66979;SDS011;54048;51.468;-2.572;2022-09-09T04:45:25;3.22;;;1.58;;
66979;SDS011;54048;51.468;-2.572;2022-09-09T04:47:51;4.03;;;1.50;;
66979;SDS011;54048;51.468;-2.572;2022-09-09T04:50:17;4.72;;;1.40;;
66979;SDS011;54048;51.468;-2.572;2022-09-09T04:52:43;5.32;;;1.63;;
66979;SDS011;54048;51.468;-2.572;2022-09-09T04:55:09;4.57;;;1.35;;
66979;SDS011;54048;51.468;-2.572;2022-09-09T04:57:34;4.65;;;1.40;;
66979;SDS011;54048;51.468;-2.572;2022-09-09T05:00:00;4.65;;;1.42;;
66979;SDS011;54048;51.468;-2.572;2022-09-09T05:02:26;5.10;;;1.60;;
66979;SDS011;54048;51.468;-2.572;2022-09-09T05:04:52;6.53;;;1.45;;
66979;SDS011;54048;51.468;-2.572;2022-09-09T05:07:17;3.03;;;1.40;;
66979;SDS011;54048;51.468;-2.572;2022-09-09T05:09:43;9.90;;;1.83;;
66979;SDS011;54048;51.468;-2.572;2022-09-09T05:12:09;5.93;;;1.30;;
66979;SDS011;54048;51.468;-2.572;2022-09-09T05:14:36;3.72;;;1.40;;
66979;SDS011;54048;51.468;-2.572;2022-09-09T05:17:02;3.38;;;1.05;;
66979;SDS011;54048;51.468;-2.572;2022-09-09T05:19:28;7.60;;;1.40;;
66979;SDS011;54048;51.468;-2.572;2022-09-09T05:21:53;7.22;;;1.30;;
66979;SDS011;54048;51.468;-2.572;2022-09-09T05:24:19;8.93;;;1.75;;
66979;SDS011;54048;51.468;-2.572;2022-09-09T05:26:44;4.40;;;1.35;;
66979;SDS011;54048;51.468;-2.572;2022-09-09T05:29:10;4.38;;;1.23;;
66979;SDS011;54048;51.468;-2.572;2022-09-09T05:31:35;5.28;;;1.20;;
66979;SDS011;54048;51.468;-2.572;2022-09-09T05:34:01;3.08;;;1.30;;
66979;SDS011;54048;51.468;-2.572;2022-09-09T05:36:27;2.10;;;1.00;;
66979;SDS011;54048;51.468;-2.572;2022-09-09T05:38:52;5.25;;;1.13;;
66979;SDS011;54048;51.468;-2.572;2022-09-09T05:41:18;3.30;;;0.90;;
66979;SDS011;54048;51.468;-2.572;2022-09-09T05:43:45;4.55;;;1.35;;
66979;SDS011;54048;51.468;-2.572;2022-09-09T05:46:13;3.47;;;1.23;;
66979;SDS011;54048;51.468;-2.572;2022-09-09T05:48:43;4.82;;;1.33;;
66979;SDS011;54048;51.468;-2.572;2022-09-09T05:51:12;2.28;;;1.00;;
66979;SDS011;54048;51.468;-2.572;2022-09-09T05:53:42;3.88;;;1.55;;
66979;SDS011;54048;51.468;-2.572;2022-09-09T05:56:11;4.43;;;1.60;;
66979;SDS011;54048;51.468;-2.572;2022-09-09T05:58:45;2.95;;;1.25;;
66979;SDS011;54048;51.468;-2.572;2022-09-09T06:01:14;4.45;;;1.33;;
66979;SDS011;54048;51.468;-2.572;2022-09-09T06:03:42;5.43;;;1.33;;
66979;SDS011;54048;51.468;-2.572;2022-09-09T06:06:09;6.03;;;1.40;;
66979;SDS011;54048;51.468;-2.572;2022-09-09T06:08:37;2.75;;;1.02;;
66979;SDS011;54048;51.468;-2.572;2022-09-09T06:11:05;5.97;;;1.50;;
66979;SDS011;54048;51.468;-2.572;2022-09-09T06:13:34;5.28;;;1.45;;
66979;SDS011;54048;51.468;-2.572;2022-09-09T06:16:02;5.38;;;1.25;;
66979;SDS011;54048;51.468;-2.572;2022-09-09T06:18:29;3.90;;;1.67;;
66979;SDS011;54048;51.468;-2.572;2022-09-09T06:20:58;8.70;;;1.58;;
66979;SDS011;54048;51.468;-2.572;2022-09-09T06:23:26;4.10;;;1.20;;
66979;SDS011;54048;51.468;-2.572;2022-09-09T06:28:40;4.93;;;1.70;;
66979;SDS011;54048;51.468;-2.572;2022-09-09T06:31:08;4.45;;;1.17;;
66979;SDS011;54048;51.468;-2.572;2022-09-09T06:33:36;6.60;;;1.52;;
66979;SDS011;54048;51.468;-2.572;2022-09-09T06:36:04;6.50;;;1.60;;
66979;SDS011;54048;51.468;-2.572;2022-09-09T06:38:30;5.22;;;1.67;;
66979;SDS011;54048;51.468;-2.572;2022-09-09T06:40:56;4.47;;;1.20;;
66979;SDS011;54048;51.468;-2.572;2022-09-09T06:43:24;4.18;;;1.50;;
66979;SDS011;54048;51.468;-2.572;2022-09-09T06:46:00;6.68;;;1.85;;
66979;SDS011;54048;51.468;-2.572;2022-09-09T06:48:30;6.53;;;1.40;;
66979;SDS011;54048;51.468;-2.572;2022-09-09T06:53:32;3.42;;;1.48;;
66979;SDS011;54048;51.468;-2.572;2022-09-09T06:55:59;8.85;;;1.42;;
66979;SDS011;54048;51.468;-2.572;2022-09-09T06:58:37;3.58;;;1.30;;
66979;SDS011;54048;51.468;-2.572;2022-09-09T07:01:03;9.48;;;1.83;;
66979;SDS011;54048;51.468;-2.572;2022-09-09T07:03:30;4.00;;;1.38;;
66979;SDS011;54048;51.468;-2.572;2022-09-09T07:05:56;3.80;;;1.40;;
66979;SDS011;54048;51.468;-2.572;2022-09-09T07:08:22;3.00;;;1.20;;
66979;SDS011;54048;51.468;-2.572;2022-09-09T07:10:47;5.20;;;1.50;;
66979;SDS011;54048;51.468;-2.572;2022-09-09T07:13:13;7.10;;;1.42;;
66979;SDS011;54048;51.468;-2.572;2022-09-09T07:15:40;5.88;;;1.90;;
66979;SDS011;54048;51.468;-2.572;2022-09-09T07:18:06;5.05;;;1.60;;
66979;SDS011;54048;51.468;-2.572;2022-09-09T07:20:32;9.32;;;1.50;;
66979;SDS011;54048;51.468;-2.572;2022-09-09T07:22:57;4.65;;;1.20;;
66979;SDS011;54048;51.468;-2.572;2022-09-09T07:25:24;3.65;;;1.30;;
66979;SDS011;54048;51.468;-2.572;2022-09-09T07:27:53;4.95;;;1.30;;
66979;SDS011;54048;51.468;-2.572;2022-09-09T07:30:19;5.38;;;1.27;;
66979;SDS011;54048;51.468;-2.572;2022-09-09T07:32:44;5.22;;;1.80;;
66979;SDS011;54048;51.468;-2.572;2022-09-09T07:35:09;4.68;;;1.58;;
66979;SDS011;54048;51.468;-2.572;2022-09-09T07:37:38;4.20;;;1.33;;
66979;SDS011;54048;51.468;-2.572;2022-09-09T07:40:04;3.50;;;1.27;;
66979;SDS011;54048;51.468;-2.572;2022-09-09T07:42:31;6.13;;;1.20;;
66979;SDS011;54048;51.468;-2.572;2022-09-09T07:44:56;4.80;;;1.63;;
66979;SDS011;54048;51.468;-2.572;2022-09-09T07:47:22;4.63;;;1.65;;
66979;SDS011;54048;51.468;-2.572;2022-09-09T07:49:49;4.10;;;1.30;;
66979;SDS011;54048;51.468;-2.572;2022-09-09T07:52:15;2.63;;;1.30;;
66979;SDS011;54048;51.468;-2.572;2022-09-09T07:54:41;3.35;;;1.30;;
66979;SDS011;54048;51.468;-2.572;2022-09-09T07:57:07;4.15;;;1.38;;
66979;SDS011;54048;51.468;-2.572;2022-09-09T07:59:32;1.35;;;1.00;;
66979;SDS011;54048;51.468;-2.572;2022-09-09T08:01:58;3.55;;;1.67;;
66979;SDS011;54048;51.468;-2.572;2022-09-09T08:04:24;5.53;;;1.55;;
66979;SDS011;54048;51.468;-2.572;2022-09-09T08:06:55;2.58;;;1.02;;
66979;SDS011;54048;51.468;-2.572;2022-09-09T08:09:22;2.00;;;1.00;;
66979;SDS011;54048;51.468;-2.572;2022-09-09T08:11:51;4.57;;;1.05;;
66979;SDS011;54048;51.468;-2.572;2022-09-09T08:14:17;4.18;;;1.15;;
66979;SDS011;54048;51.468;-2.572;2022-09-09T08:16:44;4.28;;;1.10;;
66979;SDS011;54048;51.468;-2.572;2022-09-09T08:19:10;1.92;;;0.70;;
66979;SDS011;54048;51.468;-2.572;2022-09-09T08:21:37;3.50;;;1.02;;
66979;SDS011;54048;51.468;-2.572;2022-09-09T08:24:05;1.10;;;0.75;;
66979;SDS011;54048;51.468;-2.572;2022-09-09T08:26:33;3.33;;;1.00;;
66979;SDS011;54048;51.468;-2.572;2022-09-09T08:29:01;2.58;;;1.02;;
66979;SDS011;54048;51.468;-2.572;2022-09-09T08:31:31;1.95;;;0.82;;
66979;SDS011;54048;51.468;-2.572;2022-09-09T08:34:02;1.08;;;0.70;;
66979;SDS011;54048;51.468;-2.572;2022-09-09T08:36:32;3.00;;;0.98;;
66979;SDS011;54048;51.468;-2.572;2022-09-09T08:39:00;1.08;;;0.80;;
66979;SDS011;54048;51.468;-2.572;2022-09-09T08:50:27;3.63;;;0.90;;
66979;SDS011;54048;51.468;-2.572;2022-09-09T08:52:37;4.10;;;1.10;;
66979;SDS011;54048;51.468;-2.572;2022-09-09T08:55:20;2.55;;;1.02;;
66979;SDS011;54048;51.468;-2.572;2022-09-09T08:57:49;3.72;;;0.95;;
66979;SDS011;54048;51.468;-2.572;2022-09-09T09:00:17;3.65;;;0.90;;
66979;SDS011;54048;51.468;-2.572;2022-09-09T09:03:18;3.28;;;1.15;;
66979;SDS011;54048;51.468;-2.572;2022-09-09T09:05:44;5.30;;;1.15;;
66979;SDS011;54048;51.468;-2.572;2022-09-09T09:08:31;3.20;;;1.20;;
66979;SDS011;54048;51.468;-2.572;2022-09-09T09:10:58;2.50;;;0.80;;
66979;SDS011;54048;51.468;-2.572;2022-09-09T09:16:48;5.28;;;1.00;;
66979;SDS011;54048;51.468;-2.572;2022-09-09T09:19:14;2.55;;;0.75;;
66979;SDS011;54048;51.468;-2.572;2022-09-09T09:21:42;3.63;;;0.85;;
66979;SDS011;54048;51.468;-2.572;2022-09-09T09:24:30;2.72;;;0.77;;
66979;SDS011;54048;51.468;-2.572;2022-09-09T09:27:11;1.85;;;0.82;;
66979;SDS011;54048;51.468;-2.572;2022-09-09T09:29:38;4.55;;;1.60;;
66979;SDS011;54048;51.468;-2.572;2022-09-09T09:32:05;3.05;;;1.27;;
66979;SDS011;54048;51.468;-2.572;2022-09-09T09:34:30;3.88;;;1.25;;
66979;SDS011;54048;51.468;-2.572;2022-09-09T09:36:56;6.13;;;0.80;;
66979;SDS011;54048;51.468;-2.572;2022-09-09T09:39:26;3.28;;;0.93;;
66979;SDS011;54048;51.468;-2.572;2022-09-09T09:41:54;4.97;;;1.20;;
66979;SDS011;54048;51.468;-2.572;2022-09-09T09:44:27;1.92;;;1.30;;
66979;SDS011;54048;51.468;-2.572;2022-09-09T09:47:05;3.08;;;0.98;;
66979;SDS011;54048;51.468;-2.572;2022-09-09T09:49:35;4.60;;;1.05;;
66979;SDS011;54048;51.468;-2.572;2022-09-09T09:52:01;3.35;;;0.95;;
66979;SDS011;54048;51.468;-2.572;2022-09-09T09:54:28;2.75;;;0.93;;
66979;SDS011;54048;51.468;-2.572;2022-09-09T09:56:55;1.17;;;0.80;;
66979;SDS011;54048;51.468;-2.572;2022-09-09T09:59:22;5.20;;;1.23;;
66979;SDS011;54048;51.468;-2.572;2022-09-09T10:01:48;4.05;;;1.00;;
66979;SDS011;54048;51.468;-2.572;2022-09-09T10:04:21;2.17;;;0.73;;
66979;SDS011;54048;51.468;-2.572;2022-09-09T10:06:48;3.70;;;1.15;;
66979;SDS011;54048;51.468;-2.572;2022-09-09T10:09:21;1.58;;;0.70;;
66979;SDS011;54048;51.468;-2.572;2022-09-09T10:20:30;2.60;;;0.90;;
66979;SDS011;54048;51.468;-2.572;2022-09-09T10:36:39;0.98;;;0.60;;
66979;SDS011;54048;51.468;-2.572;2022-09-09T10:55:00;1.98;;;0.80;;
66979;SDS011;54048;51.468;-2.572;2022-09-09T10:57:40;4.40;;;0.95;;
66979;SDS011;54048;51.468;-2.572;2022-09-09T11:00:15;2.85;;;1.10;;
66979;SDS011;54048;51.468;-2.572;2022-09-09T11:02:43;2.83;;;0.95;;
66979;SDS011;54048;51.468;-2.572;2022-09-09T11:07:54;8.55;;;1.10;;
66979;SDS011;54048;51.468;-2.572;2022-09-09T11:10:24;1.88;;;1.27;;
66979;SDS011;54048;51.468;-2.572;2022-09-09T11:12:56;5.10;;;1.17;;
66979;SDS011;54048;51.468;-2.572;2022-09-09T11:15:32;2.92;;;1.08;;
66979;SDS011;54048;51.468;-2.572;2022-09-09T11:18:01;1.20;;;0.80;;
66979;SDS011;54048;51.468;-2.572;2022-09-09T11:20:29;4.90;;;1.38;;
66979;SDS011;54048;51.468;-2.572;2022-09-09T11:23:04;6.35;;;1.30;;
66979;SDS011;54048;51.468;-2.572;2022-09-09T11:36:16;2.78;;;1.08;;
66979;SDS011;54048;51.468;-2.572;2022-09-09T11:44:38;4.25;;;1.40;;
66979;SDS011;54048;51.468;-2.572;2022-09-09T11:47:14;2.45;;;1.25;;
66979;SDS011;54048;51.468;-2.572;2022-09-09T11:52:46;3.45;;;1.38;;
66979;SDS011;54048;51.468;-2.572;2022-09-09T11:58:05;3.28;;;1.20;;
66979;SDS011;54048;51.468;-2.572;2022-09-09T12:00:40;3.20;;;1.25;;
66979;SDS011;54048;51.468;-2.572;2022-09-09T12:06:18;1.20;;;1.10;;
66979;SDS011;54048;51.468;-2.572;2022-09-09T12:08:53;1.85;;;1.00;;
66979;SDS011;54048;51.468;-2.572;2022-09-09T12:11:28;1.90;;;1.05;;
66979;SDS011;54048;51.468;-2.572;2022-09-09T12:13:56;4.15;;;1.30;;
66979;SDS011;54048;51.468;-2.572;2022-09-09T12:16:31;3.38;;;1.40;;
66979;SDS011;54048;51.468;-2.572;2022-09-09T12:19:06;2.75;;;1.30;;
66979;SDS011;54048;51.468;-2.572;2022-09-09T12:24:38;6.40;;;1.80;;
66979;SDS011;54048;51.468;-2.572;2022-09-09T12:27:15;5.88;;;1.70;;
66979;SDS011;54048;51.468;-2.572;2022-09-09T12:32:17;5.32;;;1.10;;
66979;SDS011;54048;51.468;-2.572;2022-09-09T12:34:55;2.95;;;1.20;;
66979;SDS011;54048;51.468;-2.572;2022-09-09T12:37:42;2.53;;;0.90;;
66979;SDS011;54048;51.468;-2.572;2022-09-09T12:40:26;9.43;;;1.10;;
66979;SDS011;54048;51.468;-2.572;2022-09-09T12:42:57;2.35;;;1.15;;
66979;SDS011;54048;51.468;-2.572;2022-09-09T12:45:26;4.47;;;1.20;;
66979;SDS011;54048;51.468;-2.572;2022-09-09T12:50:30;1.85;;;1.08;;
66979;SDS011;54048;51.468;-2.572;2022-09-09T12:52:59;3.80;;;1.00;;
66979;SDS011;54048;51.468;-2.572;2022-09-09T12:55:31;3.22;;;0.90;;
66979;SDS011;54048;51.468;-2.572;2022-09-09T12:57:58;1.98;;;1.00;;
66979;SDS011;54048;51.468;-2.572;2022-09-09T13:00:25;3.53;;;0.90;;
66979;SDS011;54048;51.468;-2.572;2022-09-09T13:02:55;1.58;;;0.80;;
66979;SDS011;54048;51.468;-2.572;2022-09-09T13:07:51;3.30;;;1.13;;
66979;SDS011;54048;51.468;-2.572;2022-09-09T13:10:26;3.85;;;1.50;;
66979;SDS011;54048;51.468;-2.572;2022-09-09T13:12:54;3.35;;;1.40;;
66979;SDS011;54048;51.468;-2.572;2022-09-09T13:15:23;3.13;;;1.55;;
66979;SDS011;54048;51.468;-2.572;2022-09-09T13:17:58;4.30;;;1.52;;
66979;SDS011;54048;51.468;-2.572;2022-09-09T13:20:26;6.00;;;1.92;;
66979;SDS011;54048;51.468;-2.572;2022-09-09T13:22:52;5.53;;;1.80;;
66979;SDS011;54048;51.468;-2.572;2022-09-09T13:27:54;7.60;;;2.35;;
66979;SDS011;54048;51.468;-2.572;2022-09-09T13:30:27;5.10;;;2.28;;
66979;SDS011;54048;51.468;-2.572;2022-09-09T13:36:12;4.05;;;1.67;;
66979;SDS011;54048;51.468;-2.572;2022-09-09T13:38:33;5.22;;;1.67;;
66979;SDS011;54048;51.468;-2.572;2022-09-09T13:41:04;5.32;;;1.77;;
66979;SDS011;54048;51.468;-2.572;2022-09-09T13:43:38;4.78;;;1.90;;
66979;SDS011;54048;51.468;-2.572;2022-09-09T13:48:58;6.85;;;1.80;;
66979;SDS011;54048;51.468;-2.572;2022-09-09T13:51:34;3.22;;;1.52;;
66979;SDS011;54048;51.468;-2.572;2022-09-09T13:54:01;2.42;;;1.10;;
66979;SDS011;54048;51.468;-2.572;2022-09-09T13:56:27;3.65;;;1.40;;
66979;SDS011;54048;51.468;-2.572;2022-09-09T13:58:54;1.67;;;1.20;;
66979;SDS011;54048;51.468;-2.572;2022-09-09T14:01:19;4.78;;;1.17;;
66979;SDS011;54048;51.468;-2.572;2022-09-09T14:03:45;4.30;;;1.27;;
66979;SDS011;54048;51.468;-2.572;2022-09-09T14:06:10;2.75;;;1.10;;
66979;SDS011;54048;51.468;-2.572;2022-09-09T14:08:36;1.95;;;1.30;;
66979;SDS011;54048;51.468;-2.572;2022-09-09T14:11:05;3.95;;;1.60;;
66979;SDS011;54048;51.468;-2.572;2022-09-09T14:13:31;4.00;;;1.80;;
66979;SDS011;54048;51.468;-2.572;2022-09-09T14:15:57;2.75;;;1.50;;
66979;SDS011;54048;51.468;-2.572;2022-09-09T14:18:22;3.08;;;1.60;;
66979;SDS011;54048;51.468;-2.572;2022-09-09T14:20:50;8.43;;;1.92;;
66979;SDS011;54048;51.468;-2.572;2022-09-09T14:23:15;3.35;;;1.90;;
66979;SDS011;54048;51.468;-2.572;2022-09-09T14:25:44;3.53;;;1.35;;
66979;SDS011;54048;51.468;-2.572;2022-09-09T14:28:10;2.65;;;1.17;;
66979;SDS011;54048;51.468;-2.572;2022-09-09T14:30:37;3.88;;;1.10;;
66979;SDS011;54048;51.468;-2.572;2022-09-09T14:33:04;3.13;;;1.20;;
66979;SDS011;54048;51.468;-2.572;2022-09-09T14:35:30;1.83;;;0.90;;
66979;SDS011;54048;51.468;-2.572;2022-09-09T14:37:55;2.25;;;1.10;;
66979;SDS011;54048;51.468;-2.572;2022-09-09T14:40:21;2.63;;;1.30;;
66979;SDS011;54048;51.468;-2.572;2022-09-09T14:42:46;2.15;;;1.10;;
66979;SDS011;54048;51.468;-2.572;2022-09-09T14:45:12;3.58;;;1.70;;
66979;SDS011;54048;51.468;-2.572;2022-09-09T14:47:37;2.00;;;1.23;;
66979;SDS011;54048;51.468;-2.572;2022-09-09T14:50:03;5.50;;;1.40;;
66979;SDS011;54048;51.468;-2.572;2022-09-09T14:52:30;2.30;;;1.40;;
66979;SDS011;54048;51.468;-2.572;2022-09-09T14:54:55;2.97;;;1.55;;
66979;SDS011;54048;51.468;-2.572;2022-09-09T14:57:20;2.80;;;1.40;;
66979;SDS011;54048;51.468;-2.572;2022-09-09T14:59:46;2.90;;;1.30;;
66979;SDS011;54048;51.468;-2.572;2022-09-09T15:02:11;3.47;;;1.50;;
66979;SDS011;54048;51.468;-2.572;2022-09-09T15:04:38;4.32;;;1.17;;
66979;SDS011;54048;51.468;-2.572;2022-09-09T15:07:04;2.25;;;1.00;;
66979;SDS011;54048;51.468;-2.572;2022-09-09T15:09:29;2.95;;;1.00;;
66979;SDS011;54048;51.468;-2.572;2022-09-09T15:11:55;3.20;;;1.00;;
66979;SDS011;54048;51.468;-2.572;2022-09-09T15:14:20;1.17;;;1.02;;
66979;SDS011;54048;51.468;-2.572;2022-09-09T15:16:46;2.25;;;1.00;;
66979;SDS011;54048;51.468;-2.572;2022-09-09T15:19:11;3.33;;;1.50;;
66979;SDS011;54048;51.468;-2.572;2022-09-09T15:21:36;3.88;;;1.27;;
66979;SDS011;54048;51.468;-2.572;2022-09-09T15:24:03;1.90;;;1.10;;
66979;SDS011;54048;51.468;-2.572;2022-09-09T15:26:29;1.65;;;0.95;;
66979;SDS011;54048;51.468;-2.572;2022-09-09T15:28:55;4.65;;;1.52;;
66979;SDS011;54048;51.468;-2.572;2022-09-09T15:31:22;2.40;;;1.20;;
66979;SDS011;54048;51.468;-2.572;2022-09-09T15:33:57;3.50;;;1.40;;
66979;SDS011;54048;51.468;-2.572;2022-09-09T15:36:26;2.55;;;1.50;;
66979;SDS011;54048;51.468;-2.572;2022-09-09T15:38:54;3.28;;;1.27;;
66979;SDS011;54048;51.468;-2.572;2022-09-09T15:41:20;3.67;;;1.30;;
66979;SDS011;54048;51.468;-2.572;2022-09-09T15:43:50;3.08;;;1.40;;
66979;SDS011;54048;51.468;-2.572;2022-09-09T15:48:46;3.17;;;1.45;;
66979;SDS011;54048;51.468;-2.572;2022-09-09T15:51:11;3.83;;;1.48;;
66979;SDS011;54048;51.468;-2.572;2022-09-09T15:53:37;4.30;;;1.48;;
66979;SDS011;54048;51.468;-2.572;2022-09-09T15:56:06;6.03;;;1.50;;
66979;SDS011;54048;51.468;-2.572;2022-09-09T15:58:32;3.05;;;1.42;;
66979;SDS011;54048;51.468;-2.572;2022-09-09T16:01:04;6.05;;;1.23;;
66979;SDS011;54048;51.468;-2.572;2022-09-09T16:03:39;5.47;;;1.50;;
66979;SDS011;54048;51.468;-2.572;2022-09-09T16:06:11;2.85;;;1.10;;
66979;SDS011;54048;51.468;-2.572;2022-09-09T16:08:40;3.47;;;1.70;;
66979;SDS011;54048;51.468;-2.572;2022-09-09T16:11:15;3.60;;;1.40;;
66979;SDS011;54048;51.468;-2.572;2022-09-09T16:13:44;5.20;;;1.58;;
66979;SDS011;54048;51.468;-2.572;2022-09-09T16:16:12;3.20;;;1.33;;
66979;SDS011;54048;51.468;-2.572;2022-09-09T16:18:39;5.38;;;1.40;;
66979;SDS011;54048;51.468;-2.572;2022-09-09T16:21:05;5.45;;;1.73;;
66979;SDS011;54048;51.468;-2.572;2022-09-09T16:23:32;4.38;;;1.60;;
66979;SDS011;54048;51.468;-2.572;2022-09-09T16:25:59;5.18;;;2.42;;
66979;SDS011;54048;51.468;-2.572;2022-09-09T16:28:24;3.38;;;1.60;;
66979;SDS011;54048;51.468;-2.572;2022-09-09T16:30:50;4.20;;;1.77;;
66979;SDS011;54048;51.468;-2.572;2022-09-09T16:33:16;4.65;;;1.42;;
66979;SDS011;54048;51.468;-2.572;2022-09-09T16:35:42;4.80;;;1.80;;
66979;SDS011;54048;51.468;-2.572;2022-09-09T16:38:07;5.05;;;1.30;;
66979;SDS011;54048;51.468;-2.572;2022-09-09T16:40:34;4.70;;;1.70;;
66979;SDS011;54048;51.468;-2.572;2022-09-09T16:43:00;3.22;;;1.20;;
66979;SDS011;54048;51.468;-2.572;2022-09-09T16:45:26;7.20;;;1.70;;
66979;SDS011;54048;51.468;-2.572;2022-09-09T16:47:51;4.95;;;2.72;;
66979;SDS011;54048;51.468;-2.572;2022-09-09T16:50:17;3.80;;;1.92;;
66979;SDS011;54048;51.468;-2.572;2022-09-09T16:52:43;19.88;;;2.53;;
66979;SDS011;54048;51.468;-2.572;2022-09-09T16:55:08;7.53;;;2.30;;
66979;SDS011;54048;51.468;-2.572;2022-09-09T16:57:34;5.28;;;2.38;;
66979;SDS011;54048;51.468;-2.572;2022-09-09T17:00:00;4.65;;;1.90;;
66979;SDS011;54048;51.468;-2.572;2022-09-09T17:02:26;7.15;;;2.58;;
66979;SDS011;54048;51.468;-2.572;2022-09-09T17:04:51;5.32;;;2.08;;